Red Bank, Tennessee
Current Conditions -  °F | °C
As of 7:53 PM on Monday 20 Oct 2014 (Local Time) from KCHA Reporting Station
Broken Clouds Broken Clouds  
Wind Chill: 60°   Ceiling: 11000
Heat Index: 60°   Visibility: 10mi
Dew Point: 52°   Wind: 6mph
Humidity: 75%   Direction: 290°WNW
Pressure: 30.01"   Gusts: NA
Location:  35.11°N, 85.3°W
Report Text: KCHA 202353Z 29005KT 10SM SCT080 BKN110 16/11 A3001 RMK AO2 SLP159 60000 T01560111 10222 20156 53004
Loading
Personal Weather Stations






























Interactive Weather Map
Tropical Storm Tracking
New forecast layout! Learn more

10-Day Weather Forecast

Advertisements
Track Severe Weather on mobile